Lykes Provider — VQIV9 — position and weather

sailwx.info

Track history (hours):
 
Tides and Currents Weather Stations Pressure Air Temp Water Temp Dewpoint Dewpoint Depression Visibility Wind Speed Wind Dir Waves Ship Positions

Lykes Provider

Last reported at 2015-Mar-29 12:26 UTC. Time now 2015-Mar-29 23:44 UTC.
Position N 22°03' E 114°21'.

Length 260 m; draft 11 m.

Type: Ship (hazmat cat C). MMSI: 235645000.

Date/timePositionNaut miles runAvg speedWind from/ knotsBaromVisibWave heightAir tempDewpointWater temp
2015-Mar-29 12:26N 22°03' E 114°21'1414.2
2015-Mar-29 11:29N 22°12' E 114°10'1210.7
2015-Mar-29 10:24N 22°21' E 114°03'910.7
2015-Mar-29 09:33N 22°24' E 113°53'3 2.8
2015-Mar-29 08:24N 22°27' E 113°54'0 0.0
2015-Mar-29 07:24N 22°27' E 113°54'0 0.0
2015-Mar-29 06:30N 22°27' E 113°54'0 0.0
2015-Mar-29 05:30N 22°27' E 113°54'0 0.0
2015-Mar-29 04:30N 22°27' E 113°54'0 0.0
2015-Mar-29 03:12N 22°27' E 113°54'0 0.0
2015-Mar-29 02:17N 22°27' E 113°54'3 4.3
2015-Mar-29 01:33N 22°24' E 113°54'12 9.4
2015-Mar-29 00:19N 22°20' E 114°05'911.1
2015-Mar-28 23:33N 22°13' E 114°10'8 6.4
2015-Mar-28 22:20N 22°08' E 114°18'6 7.6
2015-Mar-28 21:33N 22°09' E 114°24'9 9.1
2015-Mar-28 20:33N 22°09' E 114°34'28111.2
2015-Mar-27 19:32N 24°21' E 119°04'1410.8
2015-Mar-27 18:16N 24°30' E 119°15'34615.6
2015-Mar-26 20:05N 29°30' E 122°28'13 1.1
2015-Mar-26 07:29N 29°42' E 122°23'1010.9
2015-Mar-26 06:33N 29°49' E 122°14'10 9.7
2015-Mar-26 05:31N 29°47' E 122°03'2 0.4
2015-Mar-25 23:24N 29°46' E 122°00'0 0.1
2015-Mar-25 22:06N 29°46' E 122°00'6 8.5
2015-Mar-25 21:26N 29°48' E 122°06'8 9.6
2015-Mar-25 20:33N 29°47' E 122°16'79 8.6
2015-Mar-25 11:20N 31°06' E 122°29'810.5
2015-Mar-25 10:33N 31°06' E 122°20'1414.1
2015-Mar-25 09:34N 31°14' E 122°06'1414.0
2015-Mar-25 08:33N 31°17' E 121°50'1110.6
2015-Mar-25 07:33N 31°21' E 121°39'3 2.8
2015-Mar-25 06:32N 31°22' E 121°35'0 0.1
2015-Mar-25 05:31N 31°22' E 121°35'0 0.0
2015-Mar-25 04:31N 31°22' E 121°35'0 0.0
2015-Mar-25 03:31N 31°22' E 121°35'0 0.0
2015-Mar-25 02:22N 31°22' E 121°35'0 0.0
2015-Mar-25 01:19N 31°22' E 121°35'0 0.1
2015-Mar-25 00:28N 31°22' E 121°35'0 0.1
2015-Mar-24 23:30N 31°22' E 121°35'0 0.0
2015-Mar-24 22:33N 31°22' E 121°35'0 0.0
2015-Mar-24 21:33N 31°22' E 121°35'0 0.1
2015-Mar-24 20:33N 31°22' E 121°35'0 0.0
2015-Mar-24 19:33N 31°22' E 121°35'0 0.0
2015-Mar-24 18:30N 31°22' E 121°35'3 3.0
2015-Mar-24 17:33N 31°22' E 121°39'1211.5
2015-Mar-24 16:33N 31°17' E 121°51'1111.0
2015-Mar-24 15:33N 31°14' E 122°03'1110.7
2015-Mar-24 14:33N 31°09' E 122°14'1211.7
2015-Mar-24 13:33N 31°07' E 122°27'  
Track history (hours):
 
Tides and Currents Weather Stations Pressure Air Temp Water Temp Dewpoint Dewpoint Depression Visibility Wind Speed Wind Dir Waves Ship Positions

Lykes Provider

Last reported at 2015-Mar-29 12:26 UTC. Time now 2015-Mar-29 23:44 UTC.
Position N 22°03' E 114°21'.

Length 260 m; draft 11 m.

Type: Ship (hazmat cat C). MMSI: 235645000.

Date/timePositionNaut miles runAvg speedWind from/ knotsBaromVisibWave heightAir tempDewpointWater temp
2015-Mar-29 12:26N 22°03' E 114°21'1414.2
2015-Mar-29 11:29N 22°12' E 114°10'1210.7
2015-Mar-29 10:24N 22°21' E 114°03'910.7
2015-Mar-29 09:33N 22°24' E 113°53'3 2.8
2015-Mar-29 08:24N 22°27' E 113°54'0 0.0
2015-Mar-29 07:24N 22°27' E 113°54'0 0.0
2015-Mar-29 06:30N 22°27' E 113°54'0 0.0
2015-Mar-29 05:30N 22°27' E 113°54'0 0.0
2015-Mar-29 04:30N 22°27' E 113°54'0 0.0
2015-Mar-29 03:12N 22°27' E 113°54'0 0.0
2015-Mar-29 02:17N 22°27' E 113°54'3 4.3
2015-Mar-29 01:33N 22°24' E 113°54'12 9.4
2015-Mar-29 00:19N 22°20' E 114°05'911.1
2015-Mar-28 23:33N 22°13' E 114°10'8 6.4
2015-Mar-28 22:20N 22°08' E 114°18'6 7.6
2015-Mar-28 21:33N 22°09' E 114°24'9 9.1
2015-Mar-28 20:33N 22°09' E 114°34'28111.2
2015-Mar-27 19:32N 24°21' E 119°04'1410.8
2015-Mar-27 18:16N 24°30' E 119°15'34615.6
2015-Mar-26 20:05N 29°30' E 122°28'13 1.1
2015-Mar-26 07:29N 29°42' E 122°23'1010.9
2015-Mar-26 06:33N 29°49' E 122°14'10 9.7
2015-Mar-26 05:31N 29°47' E 122°03'2 0.4
2015-Mar-25 23:24N 29°46' E 122°00'0 0.1
2015-Mar-25 22:06N 29°46' E 122°00'6 8.5
2015-Mar-25 21:26N 29°48' E 122°06'8 9.6
2015-Mar-25 20:33N 29°47' E 122°16'79 8.6
2015-Mar-25 11:20N 31°06' E 122°29'810.5
2015-Mar-25 10:33N 31°06' E 122°20'1414.1
2015-Mar-25 09:34N 31°14' E 122°06'1414.0
2015-Mar-25 08:33N 31°17' E 121°50'1110.6
2015-Mar-25 07:33N 31°21' E 121°39'3 2.8
2015-Mar-25 06:32N 31°22' E 121°35'0 0.1
2015-Mar-25 05:31N 31°22' E 121°35'0 0.0
2015-Mar-25 04:31N 31°22' E 121°35'0 0.0
2015-Mar-25 03:31N 31°22' E 121°35'0 0.0
2015-Mar-25 02:22N 31°22' E 121°35'0 0.0
2015-Mar-25 01:19N 31°22' E 121°35'0 0.1
2015-Mar-25 00:28N 31°22' E 121°35'0 0.1
2015-Mar-24 23:30N 31°22' E 121°35'0 0.0
2015-Mar-24 22:33N 31°22' E 121°35'0 0.0
2015-Mar-24 21:33N 31°22' E 121°35'0 0.1
2015-Mar-24 20:33N 31°22' E 121°35'0 0.0
2015-Mar-24 19:33N 31°22' E 121°35'0 0.0
2015-Mar-24 18:30N 31°22' E 121°35'3 3.0
2015-Mar-24 17:33N 31°22' E 121°39'1211.5
2015-Mar-24 16:33N 31°17' E 121°51'1111.0
2015-Mar-24 15:33N 31°14' E 122°03'1110.7
2015-Mar-24 14:33N 31°09' E 122°14'1211.7
2015-Mar-24 13:33N 31°07' E 122°27'  

Dump ship's entire track history